createdAt,value
2023-12-09T00:00:56.965Z,-5.40
2023-12-09T00:03:24.086Z,-5.40
2023-12-09T00:05:51.254Z,-5.40
2023-12-09T00:08:18.363Z,-5.30
2023-12-09T00:10:45.707Z,-5.30
2023-12-09T00:13:12.661Z,-5.40
2023-12-09T00:15:39.703Z,-5.30
2023-12-09T00:18:06.878Z,-5.30
2023-12-09T00:20:33.997Z,-5.40
2023-12-09T00:23:01.004Z,-5.50
2023-12-09T00:25:27.934Z,-5.50
2023-12-09T00:27:54.949Z,-5.50
2023-12-09T00:30:22.515Z,-5.50
2023-12-09T00:32:49.705Z,-5.40
2023-12-09T00:35:16.808Z,-5.40
2023-12-09T00:37:43.796Z,-5.50
2023-12-09T00:40:11.218Z,-5.40
2023-12-09T00:42:38.267Z,-5.30
2023-12-09T00:45:06.378Z,-5.40
2023-12-09T00:47:33.474Z,-5.40
2023-12-09T00:50:01.627Z,-5.30
2023-12-09T00:52:29.079Z,-5.30
2023-12-09T00:54:56.237Z,-5.20
2023-12-09T00:57:25.662Z,-5.30
2023-12-09T00:59:53.103Z,-5.20
2023-12-09T01:02:20.253Z,-5.30
2023-12-09T01:04:47.431Z,-5.40
2023-12-09T01:07:14.477Z,-5.30
2023-12-09T01:09:41.503Z,-5.20
2023-12-09T01:12:08.555Z,-5.10
2023-12-09T01:14:35.708Z,-5.10
2023-12-09T01:17:02.799Z,-5.10
2023-12-09T01:19:29.777Z,-5.10
2023-12-09T01:21:56.887Z,-5.10
2023-12-09T01:24:23.892Z,-5.20
2023-12-09T01:26:50.940Z,-5.20
2023-12-09T01:29:17.972Z,-5.30
2023-12-09T01:31:45.089Z,-5.40
2023-12-09T01:34:12.218Z,-5.50
2023-12-09T01:36:39.521Z,-5.60
2023-12-09T01:39:06.570Z,-5.70
2023-12-09T01:41:33.619Z,-5.60
2023-12-09T01:44:00.554Z,-5.60
2023-12-09T01:46:27.697Z,-5.50
2023-12-09T01:48:54.894Z,-5.50
2023-12-09T01:51:22.097Z,-5.50
2023-12-09T01:53:49.158Z,-5.50
2023-12-09T01:56:17.795Z,-5.70
2023-12-09T01:58:44.831Z,-5.70
2023-12-09T02:01:13.615Z,-5.70
2023-12-09T02:03:41.036Z,-5.50
2023-12-09T02:06:08.135Z,-5.60
2023-12-09T02:08:36.261Z,-5.60
2023-12-09T02:11:18.656Z,-5.70
2023-12-09T02:14:02.510Z,-5.70
2023-12-09T02:16:34.478Z,-5.70
2023-12-09T02:19:01.955Z,-5.70
2023-12-09T02:21:29.082Z,-5.70
2023-12-09T02:23:56.153Z,-5.60
2023-12-09T02:26:25.930Z,-5.70
2023-12-09T02:28:58.117Z,-5.70
2023-12-09T02:31:28.937Z,-5.80
2023-12-09T02:33:57.640Z,-5.90
2023-12-09T02:36:26.039Z,-5.90
2023-12-09T02:38:53.274Z,-5.90
2023-12-09T02:41:20.320Z,-5.90
2023-12-09T02:43:47.769Z,-5.90
2023-12-09T02:46:16.998Z,-5.90
2023-12-09T02:48:44.240Z,-6.00
2023-12-09T02:51:11.277Z,-6.00
2023-12-09T02:53:38.246Z,-5.90
2023-12-09T02:56:05.561Z,-5.80
2023-12-09T02:58:32.680Z,-5.80
2023-12-09T03:00:59.842Z,-5.70
2023-12-09T03:03:26.915Z,-5.70
2023-12-09T03:05:54.123Z,-5.70
2023-12-09T03:08:21.142Z,-5.60
2023-12-09T03:10:48.252Z,-5.70
2023-12-09T03:13:15.230Z,-5.80
2023-12-09T03:15:42.390Z,-5.80
2023-12-09T03:18:09.530Z,-5.90
2023-12-09T03:20:36.687Z,-5.90
2023-12-09T03:23:03.722Z,-5.90
2023-12-09T03:25:30.785Z,-6.00
2023-12-09T03:28:00.669Z,-6.00
2023-12-09T03:30:28.582Z,-5.90
2023-12-09T03:32:55.769Z,-5.80
2023-12-09T03:35:22.882Z,-5.70
2023-12-09T03:37:49.983Z,-5.70
2023-12-09T03:40:17.180Z,-5.80
2023-12-09T03:42:44.436Z,-5.80
2023-12-09T03:45:11.622Z,-5.70
2023-12-09T03:47:38.700Z,-5.70
2023-12-09T03:50:05.959Z,-5.70
2023-12-09T03:52:32.936Z,-5.80
2023-12-09T03:55:00.332Z,-5.90
2023-12-09T03:57:27.380Z,-5.90
2023-12-09T03:59:54.840Z,-5.80
2023-12-09T04:02:22.028Z,-5.90
2023-12-09T04:04:49.108Z,-5.90
2023-12-09T04:07:16.188Z,-5.90
2023-12-09T04:09:43.549Z,-5.90
2023-12-09T04:12:10.609Z,-5.90
2023-12-09T04:14:37.608Z,-6.00
2023-12-09T04:17:04.755Z,-6.00
2023-12-09T04:19:31.944Z,-6.00
2023-12-09T04:21:59.144Z,-6.00
2023-12-09T04:24:26.190Z,-5.90
2023-12-09T04:26:53.294Z,-6.00
2023-12-09T04:29:20.416Z,-5.90
2023-12-09T04:31:47.414Z,-5.90
2023-12-09T04:34:14.463Z,-5.90
2023-12-09T04:36:41.495Z,-5.90
2023-12-09T04:39:08.813Z,-5.90
2023-12-09T04:41:35.913Z,-5.90
2023-12-09T04:44:02.942Z,-5.80
2023-12-09T04:46:30.112Z,-5.80
2023-12-09T04:48:58.096Z,-5.80
2023-12-09T04:51:25.373Z,-5.70
2023-12-09T04:53:52.631Z,-5.70
2023-12-09T04:56:20.027Z,-5.70
2023-12-09T04:58:47.032Z,-5.70
2023-12-09T05:01:14.252Z,-5.70
2023-12-09T05:03:41.338Z,-5.70
2023-12-09T05:06:09.289Z,-5.70
2023-12-09T05:08:36.291Z,-5.70
2023-12-09T05:11:03.554Z,-5.80
2023-12-09T05:13:30.612Z,-5.80
2023-12-09T05:15:57.684Z,-5.80
2023-12-09T05:18:24.810Z,-5.70
2023-12-09T05:20:51.878Z,-5.70
2023-12-09T05:23:18.946Z,-5.70
2023-12-09T05:25:46.069Z,-5.70
2023-12-09T05:28:13.099Z,-5.80
2023-12-09T05:30:41.535Z,-5.70
2023-12-09T05:33:08.913Z,-5.70
2023-12-09T05:35:36.331Z,-5.70
2023-12-09T05:38:03.463Z,-5.70
2023-12-09T05:40:31.978Z,-5.70
2023-12-09T05:43:00.515Z,-5.70
2023-12-09T05:45:27.709Z,-5.80
2023-12-09T05:47:54.993Z,-5.80
2023-12-09T05:50:22.386Z,-5.80
2023-12-09T05:52:49.321Z,-5.80
2023-12-09T05:55:17.396Z,-5.80
2023-12-09T05:57:45.170Z,-5.80
2023-12-09T06:00:13.160Z,-5.80
2023-12-09T06:02:42.115Z,-5.80
2023-12-09T06:05:09.886Z,-5.80
2023-12-09T06:07:36.886Z,-5.70
2023-12-09T06:10:04.511Z,-5.70
2023-12-09T06:12:31.980Z,-5.70
2023-12-09T06:14:59.114Z,-5.70
2023-12-09T06:17:26.180Z,-5.60
2023-12-09T06:19:53.282Z,-5.60
2023-12-09T06:22:20.406Z,-5.70
2023-12-09T06:24:47.856Z,-5.80
2023-12-09T06:27:15.007Z,-5.80
2023-12-09T06:29:42.059Z,-5.80
2023-12-09T06:32:09.061Z,-5.80
2023-12-09T06:34:36.192Z,-5.90
2023-12-09T06:37:03.426Z,-5.80
2023-12-09T06:39:30.635Z,-5.80
2023-12-09T06:41:57.612Z,-5.80
2023-12-09T06:44:24.666Z,-5.80
2023-12-09T06:46:51.610Z,-5.80
2023-12-09T06:49:19.623Z,-5.90
2023-12-09T06:51:46.916Z,-5.90
2023-12-09T06:54:13.925Z,-5.90
2023-12-09T06:56:41.159Z,-5.90
2023-12-09T06:59:09.080Z,-5.90
2023-12-09T07:01:36.194Z,-5.90
2023-12-09T07:04:03.190Z,-5.80
2023-12-09T07:06:30.963Z,-5.90
2023-12-09T07:08:58.604Z,-5.80
2023-12-09T07:11:25.884Z,-5.80
2023-12-09T07:13:52.913Z,-5.80
2023-12-09T07:16:19.969Z,-5.80
2023-12-09T07:18:48.109Z,-5.80
2023-12-09T07:21:16.022Z,-5.90
2023-12-09T07:23:43.452Z,-5.80
2023-12-09T07:26:10.650Z,-5.80
2023-12-09T07:28:37.597Z,-5.80
2023-12-09T07:31:04.850Z,-5.90
2023-12-09T07:33:32.108Z,-5.90
2023-12-09T07:35:59.387Z,-5.80
2023-12-09T07:38:26.415Z,-5.90
2023-12-09T07:40:53.333Z,-5.90
2023-12-09T07:43:20.551Z,-5.90
2023-12-09T07:45:47.566Z,-5.90
2023-12-09T07:48:14.675Z,-5.90
2023-12-09T07:50:42.012Z,-5.90
2023-12-09T07:53:08.948Z,-5.80
2023-12-09T07:55:36.037Z,-5.80
2023-12-09T07:58:03.003Z,-5.80
2023-12-09T08:00:30.201Z,-5.80
2023-12-09T08:02:57.452Z,-5.80
2023-12-09T08:05:25.169Z,-5.80
2023-12-09T08:07:52.460Z,-5.70
2023-12-09T08:10:19.660Z,-5.70
2023-12-09T08:12:46.923Z,-5.60
2023-12-09T08:15:14.751Z,-5.60
2023-12-09T08:17:41.939Z,-5.60
2023-12-09T08:20:10.439Z,-5.60
2023-12-09T08:22:37.826Z,-5.50
2023-12-09T08:25:05.368Z,-5.50
2023-12-09T08:27:32.371Z,-5.50
2023-12-09T08:29:59.368Z,-5.50
2023-12-09T08:32:26.928Z,-5.50
2023-12-09T08:35:03.089Z,-5.50
2023-12-09T08:37:37.208Z,-5.50
2023-12-09T08:40:12.601Z,-5.50
2023-12-09T08:42:43.791Z,-5.50
2023-12-09T08:45:12.047Z,-5.50
2023-12-09T08:47:41.010Z,-5.40
2023-12-09T08:50:21.673Z,-5.40
2023-12-09T08:52:52.409Z,-5.40
2023-12-09T08:55:19.788Z,-5.50
2023-12-09T08:57:47.033Z,-5.50
2023-12-09T09:00:15.611Z,-5.40
2023-12-09T09:02:43.167Z,-5.40
2023-12-09T09:05:10.557Z,-5.50
2023-12-09T09:07:41.565Z,-5.50
2023-12-09T09:10:09.299Z,-5.40
2023-12-09T09:12:36.468Z,-5.30
2023-12-09T09:15:06.707Z,-5.20
2023-12-09T09:17:38.331Z,-5.20
2023-12-09T09:20:06.879Z,-5.10
2023-12-09T09:22:34.687Z,-5.20
2023-12-09T09:25:02.509Z,-5.30
2023-12-09T09:27:29.819Z,-5.30
2023-12-09T09:29:57.195Z,-5.30
2023-12-09T09:32:24.905Z,-5.20
2023-12-09T09:34:52.064Z,-5.20
2023-12-09T09:37:19.161Z,-5.30
2023-12-09T09:39:46.717Z,-5.30
2023-12-09T09:42:29.475Z,-5.40
2023-12-09T09:45:02.374Z,-5.40
2023-12-09T09:47:29.803Z,-5.30
2023-12-09T09:49:57.786Z,-5.10
2023-12-09T09:52:25.085Z,-5.10
2023-12-09T09:54:52.581Z,-5.10
2023-12-09T09:57:21.275Z,-5.10
2023-12-09T09:59:48.465Z,-5.00
2023-12-09T10:02:20.917Z,-5.00
2023-12-09T10:04:48.047Z,-5.00
2023-12-09T10:07:15.698Z,-5.00
2023-12-09T10:09:42.788Z,-5.00
2023-12-09T10:12:10.134Z,-5.00
2023-12-09T10:14:37.278Z,-5.00
2023-12-09T10:17:04.446Z,-5.10
2023-12-09T10:19:31.981Z,-5.10
2023-12-09T10:21:59.402Z,-5.10
2023-12-09T10:24:26.942Z,-5.20
2023-12-09T10:26:53.954Z,-5.00
2023-12-09T10:29:21.025Z,-5.00
2023-12-09T10:31:48.073Z,-5.00
2023-12-09T10:34:15.577Z,-5.00
2023-12-09T10:36:42.786Z,-5.00
2023-12-09T10:39:10.280Z,-5.10
2023-12-09T10:41:37.294Z,-5.10
2023-12-09T10:44:04.582Z,-5.10
2023-12-09T10:46:31.540Z,-5.00
2023-12-09T10:48:58.690Z,-5.00
2023-12-09T10:51:25.986Z,-4.90
2023-12-09T10:53:52.997Z,-5.00
2023-12-09T10:56:20.530Z,-5.00
2023-12-09T10:58:48.070Z,-5.00
2023-12-09T11:01:16.952Z,-4.90
2023-12-09T11:03:44.185Z,-4.90
2023-12-09T11:06:13.763Z,-4.90
2023-12-09T11:08:41.370Z,-4.80
2023-12-09T11:11:09.382Z,-4.80
2023-12-09T11:13:37.441Z,-4.80
2023-12-09T11:16:11.559Z,-4.90
2023-12-09T11:18:55.389Z,-4.90
2023-12-09T11:21:27.262Z,-4.80
2023-12-09T11:23:55.396Z,-4.80
2023-12-09T11:26:32.943Z,-4.80
2023-12-09T11:29:06.666Z,-4.80
2023-12-09T11:31:40.506Z,-4.80
2023-12-09T11:34:08.766Z,-4.80
2023-12-09T11:36:38.148Z,-4.90
2023-12-09T11:39:11.551Z,-4.90
2023-12-09T11:41:39.789Z,-4.90
2023-12-09T11:44:07.008Z,-5.00
2023-12-09T11:46:35.420Z,-5.00
2023-12-09T11:49:02.896Z,-5.00
2023-12-09T11:51:30.578Z,-5.00
2023-12-09T11:54:01.405Z,-5.00
2023-12-09T11:56:31.898Z,-5.00
2023-12-09T11:58:59.377Z,-5.00
2023-12-09T12:01:26.905Z,-5.00
2023-12-09T12:03:54.206Z,-5.00
2023-12-09T12:06:22.858Z,-5.00
2023-12-09T12:08:50.956Z,-4.90
2023-12-09T12:11:18.659Z,-4.90
2023-12-09T12:13:45.984Z,-4.90
2023-12-09T12:16:13.292Z,-4.90
2023-12-09T12:18:40.500Z,-4.80
2023-12-09T12:21:07.740Z,-4.80
2023-12-09T12:23:35.065Z,-4.90
2023-12-09T12:26:03.271Z,-4.90
2023-12-09T12:28:30.333Z,-4.90
2023-12-09T12:31:01.046Z,-4.80
2023-12-09T12:33:31.944Z,-4.90
2023-12-09T12:36:00.359Z,-4.90
2023-12-09T12:38:27.893Z,-4.90
2023-12-09T12:40:55.629Z,-4.90
2023-12-09T12:43:23.111Z,-4.90
2023-12-09T12:45:51.832Z,-5.10
2023-12-09T12:48:19.221Z,-5.10
2023-12-09T12:50:49.640Z,-5.10
2023-12-09T12:53:19.016Z,-5.10
2023-12-09T12:55:46.448Z,-5.00
2023-12-09T12:58:13.653Z,-5.00
2023-12-09T13:00:40.961Z,-5.00
2023-12-09T13:03:08.670Z,-5.00
2023-12-09T13:05:37.409Z,-5.00
2023-12-09T13:08:06.032Z,-5.00
2023-12-09T13:10:34.164Z,-5.00
2023-12-09T13:13:01.443Z,-5.00
2023-12-09T13:15:28.853Z,-5.10
2023-12-09T13:17:56.518Z,-5.10
2023-12-09T13:20:23.717Z,-5.10
2023-12-09T13:22:50.907Z,-5.20
2023-12-09T13:25:18.727Z,-5.20
2023-12-09T13:27:47.118Z,-5.20
2023-12-09T13:30:15.257Z,-5.20
2023-12-09T13:32:42.707Z,-5.20
2023-12-09T13:35:11.915Z,-5.20
2023-12-09T13:37:39.670Z,-5.20
2023-12-09T13:40:08.122Z,-5.20
2023-12-09T13:42:35.447Z,-5.20
2023-12-09T13:45:02.863Z,-5.20
2023-12-09T13:47:30.174Z,-5.20
2023-12-09T13:49:57.168Z,-5.20
2023-12-09T13:52:28.172Z,-5.20
2023-12-09T13:54:55.497Z,-5.20
2023-12-09T13:57:22.658Z,-5.20
2023-12-09T13:59:49.839Z,-5.20
2023-12-09T14:02:16.896Z,-5.30
2023-12-09T14:04:44.162Z,-5.20
2023-12-09T14:07:11.787Z,-5.20
2023-12-09T14:09:38.908Z,-5.20
2023-12-09T14:12:06.344Z,-5.10
2023-12-09T14:14:33.478Z,-5.20
2023-12-09T14:17:01.015Z,-5.20
2023-12-09T14:19:28.616Z,-5.20
2023-12-09T14:21:55.971Z,-5.10
2023-12-09T14:24:23.154Z,-5.10
2023-12-09T14:26:50.496Z,-5.10
2023-12-09T14:29:17.719Z,-5.10
2023-12-09T14:31:44.909Z,-5.10
2023-12-09T14:34:12.117Z,-5.00
2023-12-09T14:36:39.874Z,-5.00
2023-12-09T14:39:10.748Z,-5.00
2023-12-09T14:41:38.261Z,-5.00
2023-12-09T14:44:08.687Z,-5.00
2023-12-09T14:46:36.692Z,-4.90
2023-12-09T14:49:05.035Z,-4.90
2023-12-09T14:51:40.605Z,-4.90
2023-12-09T14:54:12.657Z,-4.90
2023-12-09T14:56:40.340Z,-4.90
2023-12-09T14:59:07.590Z,-4.90
2023-12-09T15:01:34.918Z,-4.90
2023-12-09T15:04:04.382Z,-5.00
2023-12-09T15:06:31.803Z,-4.90
2023-12-09T15:08:58.983Z,-4.90
2023-12-09T15:11:26.153Z,-4.90
2023-12-09T15:13:53.273Z,-4.90
2023-12-09T15:16:20.422Z,-4.90
2023-12-09T15:18:47.947Z,-4.90
2023-12-09T15:21:15.871Z,-4.80
2023-12-09T15:23:43.282Z,-4.80
2023-12-09T15:26:12.168Z,-4.80
2023-12-09T15:28:39.533Z,-4.80
2023-12-09T15:31:09.065Z,-4.80
2023-12-09T15:33:36.481Z,-4.80
2023-12-09T15:36:04.342Z,-4.80
2023-12-09T15:38:32.414Z,-4.80
2023-12-09T15:40:59.455Z,-4.80
2023-12-09T15:43:26.751Z,-4.80
2023-12-09T15:45:56.131Z,-4.70
2023-12-09T15:48:24.693Z,-4.70
2023-12-09T15:50:51.860Z,-4.70
2023-12-09T15:53:19.684Z,-4.70
2023-12-09T15:55:47.510Z,-4.70
2023-12-09T15:58:14.911Z,-4.70
2023-12-09T16:00:42.179Z,-4.70
2023-12-09T16:03:11.001Z,-4.70
2023-12-09T16:05:38.135Z,-4.80
2023-12-09T16:08:05.622Z,-4.70
2023-12-09T16:10:33.320Z,-4.70
2023-12-09T16:13:00.577Z,-4.70
2023-12-09T16:15:27.727Z,-4.60
2023-12-09T16:17:55.925Z,-4.60
2023-12-09T16:20:23.571Z,-4.50
2023-12-09T16:22:50.773Z,-4.50
2023-12-09T16:25:17.989Z,-4.50
2023-12-09T16:27:45.121Z,-4.50
2023-12-09T16:30:12.502Z,-4.60
2023-12-09T16:32:39.693Z,-4.60
2023-12-09T16:35:07.086Z,-4.60
2023-12-09T16:37:35.369Z,-4.60
2023-12-09T16:40:02.595Z,-4.60
2023-12-09T16:42:30.085Z,-4.60
2023-12-09T16:44:57.263Z,-4.50
2023-12-09T16:47:24.581Z,-4.50
2023-12-09T16:49:51.917Z,-4.40
2023-12-09T16:52:18.936Z,-4.40
2023-12-09T16:54:46.124Z,-4.40
2023-12-09T16:57:16.015Z,-4.50
2023-12-09T16:59:43.173Z,-4.50
2023-12-09T17:02:10.217Z,-4.50
2023-12-09T17:04:37.278Z,-4.40
2023-12-09T17:07:04.677Z,-4.40
2023-12-09T17:09:32.360Z,-4.40
2023-12-09T17:11:59.661Z,-4.40
2023-12-09T17:14:27.139Z,-4.30
2023-12-09T17:16:55.290Z,-4.30
2023-12-09T17:19:22.626Z,-4.30
2023-12-09T17:21:49.821Z,-4.40
2023-12-09T17:24:17.261Z,-4.40
2023-12-09T17:26:44.308Z,-4.40
2023-12-09T17:29:11.370Z,-4.40
2023-12-09T17:31:42.874Z,-4.30
2023-12-09T17:34:11.347Z,-4.30
2023-12-09T17:36:38.633Z,-4.20
2023-12-09T17:39:07.534Z,-4.20
2023-12-09T17:41:34.690Z,-4.20
2023-12-09T17:44:01.809Z,-4.20
2023-12-09T17:46:28.900Z,-4.20
2023-12-09T17:48:56.504Z,-4.20
2023-12-09T17:51:23.647Z,-4.20
2023-12-09T17:53:50.711Z,-4.20
2023-12-09T17:56:17.748Z,-4.20
2023-12-09T17:58:45.009Z,-4.20
2023-12-09T18:01:12.208Z,-4.20
2023-12-09T18:03:40.934Z,-4.10
2023-12-09T18:06:08.390Z,-4.20
2023-12-09T18:08:37.851Z,-4.10
2023-12-09T18:11:04.972Z,-4.10
2023-12-09T18:13:32.031Z,-4.10
2023-12-09T18:15:59.245Z,-4.10
2023-12-09T18:18:26.444Z,-4.10
2023-12-09T18:20:53.690Z,-4.10
2023-12-09T18:23:20.711Z,-4.10
2023-12-09T18:25:47.785Z,-4.00
2023-12-09T18:28:15.016Z,-4.10
2023-12-09T18:30:42.264Z,-4.00
2023-12-09T18:33:09.564Z,-4.00
2023-12-09T18:35:36.655Z,-4.00
2023-12-09T18:38:03.967Z,-4.00
2023-12-09T18:40:31.034Z,-4.00
2023-12-09T18:42:58.294Z,-3.90
2023-12-09T18:45:25.842Z,-3.90
2023-12-09T18:47:52.965Z,-3.90
2023-12-09T18:50:20.006Z,-3.90
2023-12-09T18:52:47.207Z,-3.90
2023-12-09T18:55:14.339Z,-3.90
2023-12-09T18:57:41.445Z,-3.90
2023-12-09T19:00:08.896Z,-3.90
2023-12-09T19:02:36.404Z,-3.90
2023-12-09T19:05:06.421Z,-3.90
2023-12-09T19:07:33.691Z,-3.90
2023-12-09T19:10:04.899Z,-3.90
2023-12-09T19:12:33.241Z,-3.90
2023-12-09T19:15:00.438Z,-3.90
2023-12-09T19:17:27.481Z,-4.00
2023-12-09T19:19:55.410Z,-3.90
2023-12-09T19:22:22.588Z,-3.90
2023-12-09T19:24:49.666Z,-3.90
2023-12-09T19:27:16.771Z,-3.90
2023-12-09T19:29:44.425Z,-3.90
2023-12-09T19:32:11.456Z,-3.90
2023-12-09T19:34:38.911Z,-3.90
2023-12-09T19:37:06.197Z,-3.90
2023-12-09T19:39:33.342Z,-3.90
2023-12-09T19:42:00.349Z,-3.90
2023-12-09T19:44:27.591Z,-3.90
2023-12-09T19:46:54.621Z,-3.80
2023-12-09T19:49:21.901Z,-3.90
2023-12-09T19:51:49.143Z,-3.80
2023-12-09T19:54:16.598Z,-3.80
2023-12-09T19:56:43.729Z,-3.80
2023-12-09T19:59:10.853Z,-3.80
2023-12-09T20:01:37.907Z,-3.80
2023-12-09T20:04:05.380Z,-3.80
2023-12-09T20:06:33.762Z,-3.80
2023-12-09T20:09:02.399Z,-3.80
2023-12-09T20:11:29.650Z,-3.80
2023-12-09T20:13:57.057Z,-3.80
2023-12-09T20:16:26.927Z,-3.80
2023-12-09T20:18:54.353Z,-3.80
2023-12-09T20:21:21.588Z,-3.80
2023-12-09T20:23:49.404Z,-3.80
2023-12-09T20:26:17.176Z,-3.80
2023-12-09T20:28:44.257Z,-3.80
2023-12-09T20:31:14.449Z,-3.80
2023-12-09T20:33:42.097Z,-3.70
2023-12-09T20:36:09.340Z,-3.70
2023-12-09T20:38:36.898Z,-3.70
2023-12-09T20:41:03.998Z,-3.80
2023-12-09T20:43:32.844Z,-3.70
2023-12-09T20:46:01.943Z,-3.80
2023-12-09T20:48:29.407Z,-3.80
2023-12-09T20:50:56.659Z,-3.80
2023-12-09T20:53:23.774Z,-3.80
2023-12-09T20:55:50.789Z,-3.80
2023-12-09T20:58:17.909Z,-3.80
2023-12-09T21:00:44.977Z,-3.80
2023-12-09T21:03:12.311Z,-3.90
2023-12-09T21:05:39.394Z,-3.90
2023-12-09T21:08:06.537Z,-3.90
2023-12-09T21:10:33.567Z,-3.90
2023-12-09T21:13:00.918Z,-3.90
2023-12-09T21:15:28.067Z,-3.90
2023-12-09T21:17:55.205Z,-3.90
2023-12-09T21:20:22.242Z,-3.90
2023-12-09T21:22:51.246Z,-3.90
2023-12-09T21:25:18.245Z,-3.90
2023-12-09T21:27:45.309Z,-3.90
2023-12-09T21:30:12.571Z,-3.90
2023-12-09T21:32:40.454Z,-3.90
2023-12-09T21:35:07.780Z,-3.90
2023-12-09T21:37:35.405Z,-3.90
2023-12-09T21:40:02.563Z,-3.90
2023-12-09T21:42:30.020Z,-3.80
2023-12-09T21:44:58.068Z,-3.80
2023-12-09T21:47:25.253Z,-3.80
2023-12-09T21:49:52.503Z,-3.80
2023-12-09T21:52:20.693Z,-3.80
2023-12-09T21:54:48.247Z,-3.80
2023-12-09T21:57:15.771Z,-3.70
2023-12-09T21:59:43.093Z,-3.80
2023-12-09T22:02:11.127Z,-3.70
2023-12-09T22:04:38.734Z,-3.70
2023-12-09T22:07:06.123Z,-3.70
2023-12-09T22:09:33.179Z,-3.70
2023-12-09T22:12:00.294Z,-3.70
2023-12-09T22:14:27.422Z,-3.70
2023-12-09T22:16:54.657Z,-3.80
2023-12-09T22:19:21.797Z,-3.80
2023-12-09T22:21:49.655Z,-3.80
2023-12-09T22:24:16.862Z,-3.80
2023-12-09T22:26:45.211Z,-3.80
2023-12-09T22:29:12.651Z,-3.80
2023-12-09T22:31:46.026Z,-3.80
2023-12-09T22:34:13.340Z,-3.70
2023-12-09T22:36:40.611Z,-3.80
2023-12-09T22:39:09.456Z,-3.80
2023-12-09T22:41:36.612Z,-3.70
2023-12-09T22:44:04.855Z,-3.70
2023-12-09T22:46:32.089Z,-3.80
2023-12-09T22:48:59.716Z,-3.80
2023-12-09T22:51:27.950Z,-3.80
2023-12-09T22:53:55.114Z,-3.80
2023-12-09T22:56:26.504Z,-3.80
2023-12-09T22:58:54.678Z,-3.80
2023-12-09T23:01:31.643Z,-3.80
2023-12-09T23:03:58.879Z,-3.80
2023-12-09T23:06:26.255Z,-3.80
2023-12-09T23:08:53.638Z,-3.80
2023-12-09T23:11:20.768Z,-3.80
2023-12-09T23:13:47.788Z,-3.80
2023-12-09T23:16:14.965Z,-3.90
2023-12-09T23:18:42.496Z,-3.90
2023-12-09T23:21:09.833Z,-3.90
2023-12-09T23:23:37.065Z,-3.90
2023-12-09T23:26:04.498Z,-3.90
2023-12-09T23:28:31.825Z,-3.90
2023-12-09T23:30:59.196Z,-3.90
2023-12-09T23:33:26.852Z,-4.00
2023-12-09T23:35:54.221Z,-3.90
2023-12-09T23:38:22.346Z,-3.90
2023-12-09T23:40:49.621Z,-4.00
2023-12-09T23:43:16.609Z,-4.00
2023-12-09T23:45:44.324Z,-3.90
2023-12-09T23:48:13.542Z,-3.90
2023-12-09T23:50:40.678Z,-3.90
2023-12-09T23:53:07.686Z,-3.90
2023-12-09T23:55:34.867Z,-3.90
2023-12-09T23:58:03.387Z,-3.90
